Time;durP1;ratioP1;P1;durP2;ratioP2;P2;SDS_P1;SDS_P2;PMS_P1;PMS_P2;Temp;Humidity;BMP_temperature;BMP_pressure;BME280_temperature;BME280_humidity;BME280_pressure;Samples;Min_cycle;Max_cycle;Signal;HPM_P1;HPM_P2
2022/03/27 00:00:36;;;;;;;2.92;1.25;;;;;;;;;;5054784;28;20044;-74
2022/03/27 00:03:04;;;;;;;3.50;1.42;;;;;;;;;;5053806;28;20056;-74
2022/03/27 00:05:30;;;;;;;3.85;1.20;;;;;;;;;;5053471;28;20045;-74
2022/03/27 00:07:56;;;;;;;3.50;1.30;;;;;;;;;;5053897;28;20118;-74
2022/03/27 00:10:22;;;;;;;3.30;1.20;;;;;;;;;;5050461;28;20549;-74
2022/03/27 00:12:48;;;;;;;3.03;1.20;;;;;;;;;;5033590;28;20052;-74
2022/03/27 00:15:14;;;;;;;3.85;1.50;;;;;;;;;;5043692;28;20040;-74
2022/03/27 00:17:40;;;;;;;4.80;1.50;;;;;;;;;;5048799;28;20056;-74
2022/03/27 00:20:12;;;;;;;4.88;1.38;;;;;;;;;;5051844;28;20040;-74
2022/03/27 00:22:38;;;;;;;3.33;1.25;;;;;;;;;;5052505;28;20087;-74
2022/03/27 00:25:05;;;;;;;7.45;1.40;;;;;;;;;;5050173;28;20048;-74
2022/03/27 00:27:32;;;;;;;3.50;1.30;;;;;;;;;;5052019;28;20041;-74
2022/03/27 00:29:58;;;;;;;4.05;1.30;;;;;;;;;;5052650;28;20052;-74
2022/03/27 00:32:24;;;;;;;4.22;1.10;;;;;;;;;;5052735;28;21185;-74
2022/03/27 00:34:51;;;;;;;3.83;1.30;;;;;;;;;;5048488;28;20641;-74
2022/03/27 00:37:17;;;;;;;2.75;1.10;;;;;;;;;;5035042;28;20053;-74
2022/03/27 00:39:43;;;;;;;3.08;1.20;;;;;;;;;;5051305;28;20759;-74
2022/03/27 00:42:09;;;;;;;5.78;1.23;;;;;;;;;;5052552;28;20480;-74
2022/03/27 00:44:36;;;;;;;3.88;1.27;;;;;;;;;;5048421;28;20055;-75
2022/03/27 00:47:02;;;;;;;3.70;1.00;;;;;;;;;;5035446;28;20050;-74
2022/03/27 00:49:29;;;;;;;2.55;1.15;;;;;;;;;;5052161;28;20040;-75
2022/03/27 00:51:55;;;;;;;4.95;1.40;;;;;;;;;;5057785;28;20052;-74
2022/03/27 00:54:22;;;;;;;3.58;1.10;;;;;;;;;;5063534;28;20041;-74
2022/03/27 00:56:48;;;;;;;3.70;1.15;;;;;;;;;;5063012;28;20608;-74
2022/03/27 00:59:14;;;;;;;4.25;1.02;;;;;;;;;;5046180;28;20045;-74
2022/03/27 01:01:42;;;;;;;4.47;1.20;;;;;;;;;;5043964;28;20725;-74
2022/03/27 01:04:08;;;;;;;2.97;1.10;;;;;;;;;;5044050;28;20650;-74
2022/03/27 01:06:38;;;;;;;3.15;1.10;;;;;;;;;;5043839;28;20490;-74
2022/03/27 01:11:50;;;;;;;3.92;1.27;;;;;;;;;;5043825;28;20054;-74
2022/03/27 01:14:32;;;;;;;4.88;1.20;;;;;;;;;;5045071;28;20048;-75
2022/03/27 01:17:08;;;;;;;2.97;1.10;;;;;;;;;;5064094;28;20662;-74
2022/03/27 01:19:34;;;;;;;4.43;1.30;;;;;;;;;;5063442;28;20036;-74
2022/03/27 01:22:00;;;;;;;2.65;1.08;;;;;;;;;;5063216;28;20693;-74
2022/03/27 01:24:26;;;;;;;4.32;1.30;;;;;;;;;;5062939;28;20507;-74
2022/03/27 01:26:52;;;;;;;4.78;1.30;;;;;;;;;;5063540;28;20086;-75
2022/03/27 01:29:18;;;;;;;4.13;1.20;;;;;;;;;;5062479;28;20108;-75
2022/03/27 01:31:45;;;;;;;3.42;1.25;;;;;;;;;;5063626;28;20131;-74
2022/03/27 01:34:11;;;;;;;2.80;1.00;;;;;;;;;;5046361;28;20048;-74
2022/03/27 01:36:37;;;;;;;3.05;1.00;;;;;;;;;;5047068;28;20128;-75
2022/03/27 01:39:05;;;;;;;4.38;1.17;;;;;;;;;;5047518;28;20049;-74
2022/03/27 01:41:31;;;;;;;4.20;1.30;;;;;;;;;;5060080;28;20055;-75
2022/03/27 01:43:59;;;;;;;3.95;1.20;;;;;;;;;;5063254;28;20036;-75
2022/03/27 01:46:25;;;;;;;3.13;1.20;;;;;;;;;;5062990;28;20048;-74
2022/03/27 01:48:51;;;;;;;3.20;1.15;;;;;;;;;;5063500;28;20065;-75
2022/03/27 01:51:17;;;;;;;3.90;1.30;;;;;;;;;;5062407;28;20048;-74
2022/03/27 01:53:43;;;;;;;3.58;1.20;;;;;;;;;;5063586;28;20043;-74
2022/03/27 01:56:10;;;;;;;3.47;1.40;;;;;;;;;;5062295;28;20036;-74
2022/03/27 01:58:40;;;;;;;3.50;1.30;;;;;;;;;;5067745;28;20494;-75
2022/03/27 02:01:06;;;;;;;4.78;1.52;;;;;;;;;;5065381;28;20616;-74
2022/03/27 02:03:33;;;;;;;3.70;1.13;;;;;;;;;;5067539;28;20043;-75
2022/03/27 02:05:59;;;;;;;4.05;1.40;;;;;;;;;;5051433;28;20052;-75
2022/03/27 02:08:25;;;;;;;4.05;1.20;;;;;;;;;;5047433;28;20045;-74
2022/03/27 02:10:51;;;;;;;3.35;1.20;;;;;;;;;;5060485;28;20190;-74
2022/03/27 02:13:18;;;;;;;5.03;1.20;;;;;;;;;;5067455;28;20056;-75
2022/03/27 02:15:46;;;;;;;2.83;1.20;;;;;;;;;;5049410;28;20131;-75
2022/03/27 02:18:12;;;;;;;5.15;1.27;;;;;;;;;;5066695;28;20052;-75
2022/03/27 02:20:39;;;;;;;3.25;1.17;;;;;;;;;;5054809;28;20171;-75
2022/03/27 02:23:05;;;;;;;4.03;1.40;;;;;;;;;;5047255;28;20049;-74
2022/03/27 02:25:32;;;;;;;4.45;1.35;;;;;;;;;;5039660;28;21742;-75
2022/03/27 02:27:58;;;;;;;4.28;1.40;;;;;;;;;;5055011;28;20040;-75
2022/03/27 02:30:24;;;;;;;3.83;1.30;;;;;;;;;;5065414;28;20044;-74
2022/03/27 02:32:50;;;;;;;4.35;1.38;;;;;;;;;;5066915;28;20054;-75
2022/03/27 02:35:16;;;;;;;3.75;1.30;;;;;;;;;;5049350;28;20055;-75
2022/03/27 02:37:42;;;;;;;4.00;1.40;;;;;;;;;;5066759;28;20127;-75
2022/03/27 02:40:08;;;;;;;3.67;1.23;;;;;;;;;;5048466;28;20037;-74
2022/03/27 02:42:34;;;;;;;3.47;1.10;;;;;;;;;;5066363;28;20045;-74
2022/03/27 02:45:00;;;;;;;5.45;1.50;;;;;;;;;;5059138;28;20080;-74
2022/03/27 02:47:26;;;;;;;4.10;1.33;;;;;;;;;;5045899;28;20689;-75
2022/03/27 02:49:52;;;;;;;4.32;1.27;;;;;;;;;;5051602;28;20033;-74
2022/03/27 02:52:18;;;;;;;3.80;1.30;;;;;;;;;;5049356;28;20560;-74
2022/03/27 02:54:44;;;;;;;5.50;1.33;;;;;;;;;;5064944;28;20036;-74
2022/03/27 02:57:11;;;;;;;4.53;1.30;;;;;;;;;;5065432;28;20512;-75
2022/03/27 02:59:37;;;;;;;3.38;1.27;;;;;;;;;;5064653;28;20648;-74
2022/03/27 03:02:04;;;;;;;4.40;1.30;;;;;;;;;;5065380;28;20044;-74
2022/03/27 03:04:34;;;;;;;4.95;1.58;;;;;;;;;;5046746;28;20128;-74
2022/03/27 03:07:01;;;;;;;3.70;1.30;;;;;;;;;;5064746;28;20041;-74
2022/03/27 03:09:27;;;;;;;5.07;1.50;;;;;;;;;;5064729;28;20871;-75
2022/03/27 03:11:53;;;;;;;4.22;1.30;;;;;;;;;;5048791;28;20131;-75
2022/03/27 03:14:19;;;;;;;3.53;1.20;;;;;;;;;;5047801;28;20570;-74
2022/03/27 03:16:46;;;;;;;4.03;1.30;;;;;;;;;;5065581;28;20048;-75
2022/03/27 03:19:12;;;;;;;5.10;1.50;;;;;;;;;;5049106;28;20040;-75
2022/03/27 03:21:40;;;;;;;2.90;1.13;;;;;;;;;;5048945;28;20402;-74
2022/03/27 03:24:06;;;;;;;4.95;1.20;;;;;;;;;;5065618;28;20537;-74
2022/03/27 03:26:32;;;;;;;3.88;1.30;;;;;;;;;;5064442;28;20040;-74
2022/03/27 03:28:58;;;;;;;3.03;1.20;;;;;;;;;;5065530;28;20044;-75
2022/03/27 03:31:24;;;;;;;4.13;1.50;;;;;;;;;;5046775;28;20501;-74
2022/03/27 03:33:50;;;;;;;5.15;1.50;;;;;;;;;;5045624;28;20135;-74
2022/03/27 03:36:16;;;;;;;4.28;1.42;;;;;;;;;;5062645;28;20053;-74
2022/03/27 03:38:43;;;;;;;4.70;1.48;;;;;;;;;;5065695;28;20137;-74
2022/03/27 03:41:09;;;;;;;4.10;1.33;;;;;;;;;;5047032;28;20409;-74
2022/03/27 03:43:36;;;;;;;5.82;2.13;;;;;;;;;;5065061;28;20435;-75
2022/03/27 03:46:03;;;;;;;6.05;1.55;;;;;;;;;;5046637;28;20032;-74
2022/03/27 03:48:28;;;;;;;4.25;1.40;;;;;;;;;;5048472;28;20160;-74
2022/03/27 03:50:55;;;;;;;3.78;1.30;;;;;;;;;;5061941;28;20040;-74
2022/03/27 03:53:21;;;;;;;6.47;1.45;;;;;;;;;;5036587;28;20045;-74
2022/03/27 03:55:47;;;;;;;4.80;1.58;;;;;;;;;;5051192;28;20097;-75
2022/03/27 03:58:13;;;;;;;5.18;1.45;;;;;;;;;;5064306;28;20687;-74
2022/03/27 04:00:41;;;;;;;3.90;1.40;;;;;;;;;;5064068;28;20158;-74
2022/03/27 04:03:07;;;;;;;4.18;1.20;;;;;;;;;;5047979;28;20044;-74
2022/03/27 04:05:34;;;;;;;4.15;1.23;;;;;;;;;;5046827;28;20076;-74
2022/03/27 04:08:00;;;;;;;4.13;1.17;;;;;;;;;;5064735;28;20053;-74
2022/03/27 04:10:26;;;;;;;4.65;1.17;;;;;;;;;;5062984;28;20040;-75
2022/03/27 04:12:52;;;;;;;5.43;1.50;;;;;;;;;;5064327;28;20040;-75
2022/03/27 04:15:18;;;;;;;3.08;1.15;;;;;;;;;;5062920;28;20135;-75
2022/03/27 04:17:45;;;;;;;5.05;1.55;;;;;;;;;;5064503;28;20139;-75
2022/03/27 04:20:12;;;;;;;4.00;1.33;;;;;;;;;;5038470;28;20120;-75
2022/03/27 04:22:38;;;;;;;5.28;1.50;;;;;;;;;;5044194;28;20621;-74
2022/03/27 04:25:05;;;;;;;3.72;1.40;;;;;;;;;;5051342;28;20044;-74
2022/03/27 04:27:31;;;;;;;4.38;1.30;;;;;;;;;;5064151;28;20044;-74
2022/03/27 04:29:57;;;;;;;4.72;1.40;;;;;;;;;;5063496;28;20039;-74
2022/03/27 04:32:23;;;;;;;4.93;1.38;;;;;;;;;;5064660;28;20504;-75
2022/03/27 04:34:50;;;;;;;4.00;1.40;;;;;;;;;;5063214;28;20443;-74
2022/03/27 04:37:16;;;;;;;4.07;1.35;;;;;;;;;;5063862;28;20048;-74
2022/03/27 04:39:42;;;;;;;3.40;1.20;;;;;;;;;;5058569;28;20120;-74
2022/03/27 04:42:12;;;;;;;3.47;1.20;;;;;;;;;;5043671;28;20777;-74
2022/03/27 04:44:39;;;;;;;4.10;1.38;;;;;;;;;;5047031;28;20032;-74
2022/03/27 04:47:06;;;;;;;4.40;1.30;;;;;;;;;;5063415;28;20075;-74
2022/03/27 04:49:32;;;;;;;2.70;1.08;;;;;;;;;;5060629;28;20043;-74
2022/03/27 04:51:58;;;;;;;4.20;1.17;;;;;;;;;;5043574;28;20063;-74
2022/03/27 04:54:25;;;;;;;4.30;1.30;;;;;;;;;;5044875;28;20076;-74
2022/03/27 04:56:51;;;;;;;3.97;1.20;;;;;;;;;;5061751;28;20275;-74
2022/03/27 04:59:17;;;;;;;4.28;1.35;;;;;;;;;;5062252;28;20044;-74
2022/03/27 05:01:43;;;;;;;4.65;1.30;;;;;;;;;;5043552;28;20052;-74
2022/03/27 05:04:09;;;;;;;4.38;1.30;;;;;;;;;;5043222;28;20052;-74
2022/03/27 05:06:36;;;;;;;3.75;1.25;;;;;;;;;;5042849;28;20033;-74
2022/03/27 05:09:02;;;;;;;3.50;1.20;;;;;;;;;;5043257;28;20041;-74
2022/03/27 05:11:28;;;;;;;3.05;1.23;;;;;;;;;;5041603;28;20120;-74
2022/03/27 05:13:55;;;;;;;4.07;1.30;;;;;;;;;;5038781;28;20044;-73
2022/03/27 05:16:21;;;;;;;5.07;1.20;;;;;;;;;;5047388;28;20040;-74
2022/03/27 05:18:48;;;;;;;4.35;1.13;;;;;;;;;;5046818;28;20894;-74
2022/03/27 05:21:14;;;;;;;4.32;1.35;;;;;;;;;;5059676;28;20040;-74
2022/03/27 05:23:41;;;;;;;3.67;1.30;;;;;;;;;;5046822;28;20531;-74
2022/03/27 05:26:07;;;;;;;4.70;1.20;;;;;;;;;;5045719;28;20036;-74
2022/03/27 05:28:33;;;;;;;4.15;1.25;;;;;;;;;;5064049;28;20497;-74
2022/03/27 05:30:59;;;;;;;4.10;1.35;;;;;;;;;;5063048;28;20086;-74
2022/03/27 05:33:25;;;;;;;4.72;1.40;;;;;;;;;;5067604;28;20060;-74
2022/03/27 05:35:51;;;;;;;3.97;1.10;;;;;;;;;;5046866;28;20432;-74
2022/03/27 05:38:17;;;;;;;4.03;1.30;;;;;;;;;;5060447;28;20051;-74
2022/03/27 05:40:43;;;;;;;4.65;1.27;;;;;;;;;;5037350;28;20041;-74
2022/03/27 05:43:09;;;;;;;4.10;1.42;;;;;;;;;;5047398;28;20056;-74
2022/03/27 05:45:35;;;;;;;4.07;1.15;;;;;;;;;;5047588;28;20045;-74
2022/03/27 05:48:02;;;;;;;4.10;1.20;;;;;;;;;;5047511;28;20040;-74
2022/03/27 05:50:28;;;;;;;4.55;1.40;;;;;;;;;;5054585;28;20040;-74
2022/03/27 05:52:54;;;;;;;4.15;1.35;;;;;;;;;;5055088;28;20053;-74
2022/03/27 05:55:21;;;;;;;4.22;1.30;;;;;;;;;;5038695;28;20041;-74
2022/03/27 05:57:47;;;;;;;4.53;1.33;;;;;;;;;;5054344;28;20045;-74
2022/03/27 06:00:16;;;;;;;5.10;1.55;;;;;;;;;;5047708;28;20032;-74
2022/03/27 06:02:42;;;;;;;3.70;1.25;;;;;;;;;;5030550;28;20041;-74
2022/03/27 06:05:08;;;;;;;5.78;1.60;;;;;;;;;;5030652;28;20044;-74
2022/03/27 06:07:43;;;;;;;3.95;1.30;;;;;;;;;;5045088;28;20069;-74
2022/03/27 06:10:10;;;;;;;6.13;1.58;;;;;;;;;;5051566;28;20625;-74
2022/03/27 06:12:36;;;;;;;5.97;1.42;;;;;;;;;;5066631;28;20083;-74
2022/03/27 06:15:02;;;;;;;5.43;1.17;;;;;;;;;;5065215;28;20068;-74
2022/03/27 06:17:28;;;;;;;4.28;1.30;;;;;;;;;;5066578;28;20072;-74
2022/03/27 06:19:54;;;;;;;6.55;1.58;;;;;;;;;;5059961;28;20091;-74
2022/03/27 06:22:20;;;;;;;5.20;1.48;;;;;;;;;;5046138;28;20053;-74
2022/03/27 06:24:46;;;;;;;6.43;1.92;;;;;;;;;;5050184;28;20032;-74
2022/03/27 06:27:12;;;;;;;5.65;1.60;;;;;;;;;;5066065;28;20120;-74
2022/03/27 06:29:38;;;;;;;8.43;1.75;;;;;;;;;;5065126;28;20036;-74
2022/03/27 06:32:04;;;;;;;5.60;1.70;;;;;;;;;;5066449;28;20117;-74
2022/03/27 06:34:31;;;;;;;5.47;1.42;;;;;;;;;;5065302;28;20095;-74
2022/03/27 06:36:57;;;;;;;6.45;1.70;;;;;;;;;;5066040;28;20040;-74
2022/03/27 06:39:23;;;;;;;7.47;1.80;;;;;;;;;;5049250;28;20050;-74
2022/03/27 06:41:49;;;;;;;6.25;1.85;;;;;;;;;;5064355;28;20053;-74
2022/03/27 06:44:15;;;;;;;6.57;1.60;;;;;;;;;;5065116;28;20044;-74
2022/03/27 06:46:42;;;;;;;6.65;1.75;;;;;;;;;;5045290;28;20047;-74
2022/03/27 06:49:08;;;;;;;6.43;1.50;;;;;;;;;;5043746;28;20053;-74
2022/03/27 06:51:34;;;;;;;7.00;1.80;;;;;;;;;;5064976;28;20756;-74
2022/03/27 06:54:00;;;;;;;6.30;1.70;;;;;;;;;;5066051;28;20539;-75
2022/03/27 06:56:27;;;;;;;8.38;1.92;;;;;;;;;;5047225;28;20043;-75
2022/03/27 06:58:53;;;;;;;7.90;2.10;;;;;;;;;;5065379;28;20044;-76
2022/03/27 07:04:04;;;;;;;7.38;2.05;;;;;;;;;;5065498;28;20048;-76
2022/03/27 07:06:30;;;;;;;7.85;1.90;;;;;;;;;;5045647;28;20146;-76
2022/03/27 07:08:56;;;;;;;8.20;2.35;;;;;;;;;;5028422;28;20501;-76
2022/03/27 07:11:22;;;;;;;7.32;1.90;;;;;;;;;;5045972;28;20122;-76
2022/03/27 07:13:49;;;;;;;7.82;1.80;;;;;;;;;;5064861;28;20139;-76
2022/03/27 07:16:16;;;;;;;9.93;2.42;;;;;;;;;;5063766;28;20044;-76
2022/03/27 07:18:42;;;;;;;9.15;2.03;;;;;;;;;;5065386;28;20571;-76
2022/03/27 07:21:08;;;;;;;9.82;2.25;;;;;;;;;;5063744;28;20091;-76
2022/03/27 07:23:34;;;;;;;9.25;2.20;;;;;;;;;;5064593;28;20068;-77
2022/03/27 07:26:00;;;;;;;8.30;2.20;;;;;;;;;;5063011;28;20042;-77
2022/03/27 07:28:30;;;;;;;12.45;2.17;;;;;;;;;;5064656;28;20072;-76
2022/03/27 07:30:58;;;;;;;8.57;2.00;;;;;;;;;;5063089;28;20076;-76
2022/03/27 07:33:24;;;;;;;8.98;2.58;;;;;;;;;;5064154;28;20060;-76
2022/03/27 07:35:50;;;;;;;11.27;2.33;;;;;;;;;;5063257;28;20732;-76
2022/03/27 07:38:16;;;;;;;11.55;2.65;;;;;;;;;;5047401;28;20105;-76
2022/03/27 07:40:43;;;;;;;9.88;2.60;;;;;;;;;;5062676;28;20109;-76
2022/03/27 07:43:09;;;;;;;14.52;3.35;;;;;;;;;;5063237;28;20609;-75
2022/03/27 07:45:36;;;;;;;10.93;2.63;;;;;;;;;;5046760;28;20131;-76
2022/03/27 07:48:02;;;;;;;13.18;2.88;;;;;;;;;;5064299;28;20115;-76
2022/03/27 07:50:30;;;;;;;10.77;2.65;;;;;;;;;;5062768;28;20036;-76
2022/03/27 07:52:56;;;;;;;10.00;2.20;;;;;;;;;;5064117;28;20044;-75
2022/03/27 07:55:24;;;;;;;19.05;3.53;;;;;;;;;;5061476;28;20126;-75
2022/03/27 07:57:50;;;;;;;14.93;3.10;;;;;;;;;;5031474;28;20128;-76
2022/03/27 08:00:16;;;;;;;10.82;3.03;;;;;;;;;;5039169;28;20118;-76
2022/03/27 08:02:43;;;;;;;16.63;3.08;;;;;;;;;;5063877;28;20044;-76
2022/03/27 08:05:09;;;;;;;14.10;2.80;;;;;;;;;;5046554;28;20113;-77
2022/03/27 08:07:36;;;;;;;12.32;3.05;;;;;;;;;;5064018;28;20040;-76
2022/03/27 08:10:02;;;;;;;13.90;3.00;;;;;;;;;;5046284;28;20086;-76
2022/03/27 08:12:28;;;;;;;12.43;3.63;;;;;;;;;;5037992;28;20041;-76
2022/03/27 08:14:55;;;;;;;11.63;3.28;;;;;;;;;;5048953;28;20066;-76
2022/03/27 08:17:21;;;;;;;10.80;3.05;;;;;;;;;;5063122;28;20048;-76
2022/03/27 08:19:49;;;;;;;14.68;2.90;;;;;;;;;;5046231;28;20037;-75
2022/03/27 08:22:14;;;;;;;14.43;3.25;;;;;;;;;;5046838;28;20033;-75
2022/03/27 08:24:41;;;;;;;14.98;3.13;;;;;;;;;;5062721;28;20063;-76
2022/03/27 08:27:08;;;;;;;11.45;2.92;;;;;;;;;;5046091;28;20043;-75
2022/03/27 08:29:37;;;;;;;11.50;3.00;;;;;;;;;;5045784;28;20036;-75
2022/03/27 08:32:06;;;;;;;12.15;2.63;;;;;;;;;;5063719;28;20139;-76
2022/03/27 08:34:33;;;;;;;14.07;3.88;;;;;;;;;;5062662;28;20387;-76
2022/03/27 08:37:01;;;;;;;10.88;2.65;;;;;;;;;;5062916;28;20044;-75
2022/03/27 08:39:27;;;;;;;12.13;2.70;;;;;;;;;;5062056;28;20044;-75
2022/03/27 08:41:54;;;;;;;10.27;2.53;;;;;;;;;;5042700;28;20383;-75
2022/03/27 08:44:21;;;;;;;12.88;2.75;;;;;;;;;;5016355;28;20037;-76
2022/03/27 08:46:48;;;;;;;15.57;3.65;;;;;;;;;;5029123;28;20141;-77
2022/03/27 08:49:26;;;;;;;13.80;3.13;;;;;;;;;;5037319;28;20183;-77
2022/03/27 08:51:57;;;;;;;13.68;2.90;;;;;;;;;;5029077;28;20040;-76
2022/03/27 08:54:24;;;;;;;11.32;2.78;;;;;;;;;;5044600;28;20528;-76
2022/03/27 08:57:02;;;;;;;10.95;3.03;;;;;;;;;;5029694;28;20059;-78
2022/03/27 08:59:28;;;;;;;13.70;3.42;;;;;;;;;;5049335;28;20049;-77
2022/03/27 09:01:55;;;;;;;12.05;3.00;;;;;;;;;;5026592;28;20074;-78
2022/03/27 09:04:21;;;;;;;14.50;3.33;;;;;;;;;;5026267;28;21866;-78
2022/03/27 09:06:47;;;;;;;20.70;4.93;;;;;;;;;;5059719;28;20501;-78
2022/03/27 09:09:13;;;;;;;13.10;3.05;;;;;;;;;;5062026;28;20036;-78
2022/03/27 09:11:39;;;;;;;17.00;4.00;;;;;;;;;;5062604;28;20047;-78
2022/03/27 09:14:07;;;;;;;15.07;3.53;;;;;;;;;;5063051;28;20041;-78
2022/03/27 09:16:53;;;;;;;14.73;4.00;;;;;;;;;;5045757;28;20048;-78
2022/03/27 09:19:31;;;;;;;17.25;3.70;;;;;;;;;;5061689;28;20036;-78
2022/03/27 09:21:59;;;;;;;14.43;3.60;;;;;;;;;;5062995;28;20508;-78
2022/03/27 09:24:32;;;;;;;13.90;3.53;;;;;;;;;;5062265;28;20047;-78
2022/03/27 09:27:00;;;;;;;14.35;3.00;;;;;;;;;;5062693;28;20170;-78
2022/03/27 09:29:26;;;;;;;12.35;3.50;;;;;;;;;;5061887;28;20048;-78
2022/03/27 09:31:59;;;;;;;12.93;3.47;;;;;;;;;;5062503;28;20072;-78
2022/03/27 09:34:25;;;;;;;16.17;3.42;;;;;;;;;;5061532;28;20889;-78
2022/03/27 09:36:52;;;;;;;15.05;3.55;;;;;;;;;;5046129;28;20044;-76
2022/03/27 09:39:22;;;;;;;13.93;3.33;;;;;;;;;;5045206;28;20135;-77
2022/03/27 09:41:52;;;;;;;15.27;3.45;;;;;;;;;;5045707;28;20136;-77
2022/03/27 09:44:19;;;;;;;12.35;3.10;;;;;;;;;;5061237;28;20037;-77
2022/03/27 09:46:48;;;;;;;11.70;3.40;;;;;;;;;;5062291;28;20044;-77
2022/03/27 09:49:16;;;;;;;14.93;3.53;;;;;;;;;;5060928;28;20029;-77
2022/03/27 09:51:52;;;;;;;10.55;3.10;;;;;;;;;;5062108;28;20040;-78
2022/03/27 09:54:18;;;;;;;11.65;3.35;;;;;;;;;;5061214;28;20447;-77
2022/03/27 09:56:44;;;;;;;14.80;3.65;;;;;;;;;;5043936;28;20037;-77
2022/03/27 09:59:25;;;;;;;12.45;3.13;;;;;;;;;;5061400;28;20094;-77
2022/03/27 10:01:51;;;;;;;13.40;3.13;;;;;;;;;;5025996;28;20037;-77
2022/03/27 10:04:17;;;;;;;12.52;3.30;;;;;;;;;;5043188;28;20710;-77
2022/03/27 10:06:43;;;;;;;12.13;3.30;;;;;;;;;;5062355;28;20072;-77
2022/03/27 10:09:13;;;;;;;10.48;2.97;;;;;;;;;;5061473;28;20110;-77
2022/03/27 10:11:41;;;;;;;12.02;3.80;;;;;;;;;;5061661;28;20379;-77
2022/03/27 10:14:07;;;;;;;11.82;3.40;;;;;;;;;;5061845;28;20489;-77
2022/03/27 10:16:35;;;;;;;14.80;3.78;;;;;;;;;;5061320;28;20753;-77
2022/03/27 10:19:06;;;;;;;11.00;2.80;;;;;;;;;;5065533;28;20037;-77
2022/03/27 10:21:33;;;;;;;11.20;3.00;;;;;;;;;;5047841;28;20040;-77
2022/03/27 10:24:06;;;;;;;9.32;2.38;;;;;;;;;;5048805;28;20098;-76
2022/03/27 10:26:32;;;;;;;9.73;2.83;;;;;;;;;;5062861;28;20067;-77
2022/03/27 10:28:59;;;;;;;13.13;3.47;;;;;;;;;;5048493;28;20534;-77
2022/03/27 10:31:26;;;;;;;9.48;2.25;;;;;;;;;;5064064;28;20037;-77
2022/03/27 10:33:54;;;;;;;12.23;3.53;;;;;;;;;;5064962;28;20063;-77
2022/03/27 10:36:24;;;;;;;8.45;2.63;;;;;;;;;;5064243;28;20049;-77
2022/03/27 10:38:58;;;;;;;10.25;3.22;;;;;;;;;;5064951;28;20047;-77
2022/03/27 10:41:27;;;;;;;15.38;3.38;;;;;;;;;;5063289;28;20643;-76
2022/03/27 10:44:02;;;;;;;9.52;2.88;;;;;;;;;;5065093;28;20127;-77
2022/03/27 10:46:29;;;;;;;12.95;3.47;;;;;;;;;;5063270;28;20288;-77
2022/03/27 10:49:10;;;;;;;16.00;3.78;;;;;;;;;;5064958;28;20044;-77
2022/03/27 10:51:37;;;;;;;12.48;2.95;;;;;;;;;;5064434;28;20049;-77
2022/03/27 10:54:06;;;;;;;11.75;3.00;;;;;;;;;;5064824;28;20043;-76
2022/03/27 10:56:34;;;;;;;9.50;2.72;;;;;;;;;;5028165;28;20037;-77
2022/03/27 10:59:13;;;;;;;11.32;3.13;;;;;;;;;;5044669;28;20113;-77
2022/03/27 11:01:44;;;;;;;10.55;2.65;;;;;;;;;;5044793;28;20144;-76
2022/03/27 11:04:10;;;;;;;10.38;2.75;;;;;;;;;;5044562;28;20033;-76
2022/03/27 11:06:37;;;;;;;11.38;3.03;;;;;;;;;;5044406;28;20090;-76
2022/03/27 11:09:06;;;;;;;11.20;3.03;;;;;;;;;;5027630;28;20041;-76
2022/03/27 11:11:39;;;;;;;9.77;3.00;;;;;;;;;;5063133;28;20036;-76
2022/03/27 11:14:06;;;;;;;14.15;2.95;;;;;;;;;;5064741;28;20037;-76
2022/03/27 11:16:36;;;;;;;13.18;3.05;;;;;;;;;;5063719;28;20116;-76
2022/03/27 11:19:02;;;;;;;11.73;2.90;;;;;;;;;;5064474;28;20109;-77
2022/03/27 11:21:28;;;;;;;11.75;2.75;;;;;;;;;;5062798;28;20040;-76
2022/03/27 11:24:15;;;;;;;10.77;3.30;;;;;;;;;;5047571;28;20051;-76
2022/03/27 11:26:41;;;;;;;11.32;3.03;;;;;;;;;;5056316;28;20048;-76
2022/03/27 11:29:19;;;;;;;11.60;2.67;;;;;;;;;;5062711;28;20520;-76
2022/03/27 11:31:45;;;;;;;12.10;2.75;;;;;;;;;;5046661;28;20707;-76
2022/03/27 11:34:12;;;;;;;10.23;2.58;;;;;;;;;;5063108;28;20055;-76
2022/03/27 11:36:39;;;;;;;9.85;3.13;;;;;;;;;;5062952;28;20044;-76
2022/03/27 11:39:08;;;;;;;11.68;3.08;;;;;;;;;;5063739;28;20037;-76
2022/03/27 11:41:43;;;;;;;10.02;2.58;;;;;;;;;;5045468;28;20052;-76
2022/03/27 11:47:16;;;;;;;11.38;3.47;;;;;;;;;;5043616;28;20040;-76
2022/03/27 11:49:43;;;;;;;12.05;3.50;;;;;;;;;;5047136;28;20071;-76
2022/03/27 11:52:09;;;;;;;11.50;2.80;;;;;;;;;;5063336;28;20600;-76
2022/03/27 11:54:35;;;;;;;13.48;3.00;;;;;;;;;;5059344;28;20098;-76
2022/03/27 11:57:02;;;;;;;11.20;2.88;;;;;;;;;;5043368;28;20048;-76
2022/03/27 11:59:28;;;;;;;8.45;2.60;;;;;;;;;;5045238;28;20094;-76
2022/03/27 12:01:57;;;;;;;8.80;2.55;;;;;;;;;;5063645;28;20641;-76
2022/03/27 12:04:23;;;;;;;9.40;2.80;;;;;;;;;;5065761;28;20420;-76
2022/03/27 12:06:56;;;;;;;9.25;2.30;;;;;;;;;;5055434;28;20036;-76
2022/03/27 12:09:26;;;;;;;9.40;2.58;;;;;;;;;;5071026;28;20076;-75
2022/03/27 12:12:06;;;;;;;7.45;2.20;;;;;;;;;;5052003;28;20041;-76
2022/03/27 12:14:32;;;;;;;10.27;2.58;;;;;;;;;;5037360;28;20036;-75
2022/03/27 12:16:58;;;;;;;8.70;2.50;;;;;;;;;;5031296;28;20045;-76
2022/03/27 12:19:24;;;;;;;8.43;2.33;;;;;;;;;;5044094;28;20059;-76
2022/03/27 12:21:50;;;;;;;10.10;2.35;;;;;;;;;;5063727;28;20120;-76
2022/03/27 12:24:18;;;;;;;8.32;2.38;;;;;;;;;;5061559;28;20052;-76
2022/03/27 12:29:49;;;;;;;;;;;;;;;;;;5061832;28;20048;-76
2022/03/27 12:32:22;;;;;;;8.63;2.13;;;;;;;;;;5062343;28;19988;-76
2022/03/27 12:34:51;;;;;;;10.95;2.60;;;;;;;;;;5044423;28;20040;-76
2022/03/27 12:37:25;;;;;;;9.35;2.30;;;;;;;;;;5061529;28;20094;-76
2022/03/27 12:39:51;;;;;;;9.85;2.45;;;;;;;;;;5060348;28;20770;-76
2022/03/27 12:42:36;;;;;;;9.98;2.05;;;;;;;;;;5062052;28;20051;-76
2022/03/27 12:45:02;;;;;;;9.05;2.80;;;;;;;;;;5054376;28;20119;-76
2022/03/27 12:47:32;;;;;;;8.20;2.50;;;;;;;;;;5062600;28;20123;-75
2022/03/27 12:49:58;;;;;;;8.70;2.10;;;;;;;;;;5044732;28;20616;-75
2022/03/27 12:52:24;;;;;;;8.77;2.20;;;;;;;;;;5062118;28;20575;-76
2022/03/27 12:55:10;;;;;;;6.90;2.13;;;;;;;;;;5044753;28;20040;-76
2022/03/27 12:57:50;;;;;;;7.40;2.05;;;;;;;;;;5062172;28;20127;-75
2022/03/27 13:00:16;;;;;;;9.48;2.13;;;;;;;;;;5044604;28;20137;-76
2022/03/27 13:02:42;;;;;;;9.93;2.28;;;;;;;;;;5045651;28;20048;-76
2022/03/27 13:05:09;;;;;;;7.47;2.05;;;;;;;;;;5060872;28;20929;-75
2022/03/27 13:07:51;;;;;;;8.95;1.98;;;;;;;;;;5062219;28;20041;-75
2022/03/27 13:10:17;;;;;;;9.25;2.20;;;;;;;;;;5035108;28;20037;-76
2022/03/27 13:12:43;;;;;;;7.38;2.15;;;;;;;;;;5025573;28;20040;-75
2022/03/27 13:15:09;;;;;;;8.30;2.00;;;;;;;;;;5049713;28;20048;-76
2022/03/27 13:17:35;;;;;;;7.47;2.17;;;;;;;;;;5062190;28;20076;-76
2022/03/27 13:20:01;;;;;;;6.80;1.92;;;;;;;;;;5060482;28;20041;-76
2022/03/27 13:22:27;;;;;;;8.40;2.33;;;;;;;;;;5045059;28;20051;-75
2022/03/27 13:24:53;;;;;;;7.95;1.85;;;;;;;;;;5044140;28;20523;-76
2022/03/27 13:27:19;;;;;;;7.10;1.80;;;;;;;;;;5061838;28;20127;-76
2022/03/27 13:29:45;;;;;;;9.02;2.22;;;;;;;;;;5044211;28;20028;-76
2022/03/27 13:32:11;;;;;;;7.30;1.88;;;;;;;;;;5061653;28;20706;-76
2022/03/27 13:34:37;;;;;;;7.78;2.28;;;;;;;;;;5060732;28;20127;-76
2022/03/27 13:37:04;;;;;;;6.68;1.83;;;;;;;;;;5061467;28;20052;-76
2022/03/27 13:39:30;;;;;;;9.93;2.17;;;;;;;;;;5060356;28;20128;-76
2022/03/27 13:44:41;;;;;;;7.32;1.58;;;;;;;;;;5060661;28;20040;-76
2022/03/27 13:47:08;;;;;;;8.43;1.90;;;;;;;;;;5062145;28;20538;-76
2022/03/27 13:49:34;;;;;;;8.30;2.33;;;;;;;;;;5060400;28;20755;-75
2022/03/27 13:52:00;;;;;;;6.93;2.05;;;;;;;;;;5062401;28;20685;-75
2022/03/27 13:54:27;;;;;;;6.72;1.70;;;;;;;;;;5064322;28;20058;-76
2022/03/27 13:56:53;;;;;;;7.00;2.00;;;;;;;;;;5065083;28;20087;-76
2022/03/27 13:59:20;;;;;;;8.98;1.92;;;;;;;;;;5047440;28;20137;-76
2022/03/27 14:01:47;;;;;;;6.15;1.83;;;;;;;;;;5055849;28;20049;-75
2022/03/27 14:04:15;;;;;;;5.43;1.40;;;;;;;;;;5064619;28;20078;-75
2022/03/27 14:06:42;;;;;;;7.32;2.10;;;;;;;;;;5044856;28;20037;-76
2022/03/27 14:09:08;;;;;;;6.10;1.77;;;;;;;;;;5028670;28;20128;-75
2022/03/27 14:11:34;;;;;;;6.85;2.00;;;;;;;;;;5045029;28;20132;-76
2022/03/27 14:14:00;;;;;;;7.00;2.05;;;;;;;;;;5045352;28;20037;-75
2022/03/27 14:16:28;;;;;;;9.38;2.00;;;;;;;;;;5062944;28;20098;-75
2022/03/27 14:18:54;;;;;;;7.72;1.90;;;;;;;;;;5052333;28;20699;-75
2022/03/27 14:21:20;;;;;;;6.22;1.75;;;;;;;;;;5061691;28;20132;-76
2022/03/27 14:23:46;;;;;;;7.13;1.92;;;;;;;;;;5064664;28;20071;-76
2022/03/27 14:26:12;;;;;;;6.43;1.70;;;;;;;;;;5046948;28;20067;-76
2022/03/27 14:28:38;;;;;;;7.10;2.22;;;;;;;;;;5048233;28;20037;-76
2022/03/27 14:31:04;;;;;;;6.50;1.80;;;;;;;;;;5047186;28;20036;-76
2022/03/27 14:33:30;;;;;;;7.38;1.80;;;;;;;;;;5065117;28;20136;-76
2022/03/27 14:36:00;;;;;;;7.60;2.00;;;;;;;;;;5063100;28;20044;-75
2022/03/27 14:38:27;;;;;;;8.05;1.90;;;;;;;;;;5064687;28;20513;-75
2022/03/27 14:40:56;;;;;;;8.07;2.25;;;;;;;;;;5062798;28;20072;-75
2022/03/27 14:43:22;;;;;;;6.72;1.83;;;;;;;;;;5064769;28;20040;-75
2022/03/27 14:45:50;;;;;;;7.10;1.75;;;;;;;;;;5063366;28;20696;-75
2022/03/27 14:48:18;;;;;;;6.97;1.88;;;;;;;;;;5047305;28;20068;-76
2022/03/27 14:50:45;;;;;;;7.63;2.42;;;;;;;;;;5063094;28;20094;-75
2022/03/27 14:53:11;;;;;;;10.75;2.50;;;;;;;;;;5048039;28;20040;-75
2022/03/27 14:58:21;;;;;;;;;;;;;;;;;;5065140;28;20650;-75